sensor_id;sensor_type;location;lat;lon;timestamp;pressure;altitude;pressure_sealevel;temperature;humidity
55934;BME280;41839;41.386;2.082;2022-07-19T00:00:33;99929.72;;;28.75;64.67
55934;BME280;41839;41.386;2.082;2022-07-19T00:02:59;99933.91;;;28.82;63.77
55934;BME280;41839;41.386;2.082;2022-07-19T00:05:24;99935.97;;;28.72;66.03
55934;BME280;41839;41.386;2.082;2022-07-19T00:07:50;99932.13;;;28.52;66.23
55934;BME280;41839;41.386;2.082;2022-07-19T00:10:17;99889.94;;;28.13;67.46
55934;BME280;41839;41.386;2.082;2022-07-19T00:12:45;99927.13;;;28.41;67.58
55934;BME280;41839;41.386;2.082;2022-07-19T00:15:12;99923.38;;;28.49;65.55
55934;BME280;41839;41.386;2.082;2022-07-19T00:17:39;99930.47;;;28.47;67.21
55934;BME280;41839;41.386;2.082;2022-07-19T00:20:06;99927.38;;;28.30;67.58
55934;BME280;41839;41.386;2.082;2022-07-19T00:22:31;99941.38;;;28.34;68.15
55934;BME280;41839;41.386;2.082;2022-07-19T00:24:57;99932.44;;;28.41;67.62
55934;BME280;41839;41.386;2.082;2022-07-19T00:27:22;99938.66;;;28.37;67.87
55934;BME280;41839;41.386;2.082;2022-07-19T00:29:48;99925.03;;;28.18;68.44
55934;BME280;41839;41.386;2.082;2022-07-19T00:32:13;99929.47;;;28.17;68.42
55934;BME280;41839;41.386;2.082;2022-07-19T00:34:39;99916.28;;;28.16;68.93
55934;BME280;41839;41.386;2.082;2022-07-19T00:37:04;99919.56;;;28.25;67.30
55934;BME280;41839;41.386;2.082;2022-07-19T00:39:30;99918.63;;;28.28;67.69
55934;BME280;41839;41.386;2.082;2022-07-19T00:43:03;99906.19;;;27.97;69.16
55934;BME280;41839;41.386;2.082;2022-07-19T00:45:29;99899.19;;;27.95;69.47
55934;BME280;41839;41.386;2.082;2022-07-19T00:47:55;99916.78;;;27.96;69.34
55934;BME280;41839;41.386;2.082;2022-07-19T00:50:21;99902.22;;;27.79;69.97
55934;BME280;41839;41.386;2.082;2022-07-19T00:52:50;99912.19;;;27.67;70.65
55934;BME280;41839;41.386;2.082;2022-07-19T00:55:20;99903.63;;;27.57;71.57
55934;BME280;41839;41.386;2.082;2022-07-19T00:57:46;99910.63;;;27.58;70.91
55934;BME280;41839;41.386;2.082;2022-07-19T01:00:13;99900.91;;;27.58;70.58
55934;BME280;41839;41.386;2.082;2022-07-19T01:02:40;99908.28;;;27.83;69.44
55934;BME280;41839;41.386;2.082;2022-07-19T01:05:07;99910.69;;;27.94;69.96
55934;BME280;41839;41.386;2.082;2022-07-19T01:07:34;99912.34;;;27.98;70.02
55934;BME280;41839;41.386;2.082;2022-07-19T01:10:01;99911.56;;;27.94;69.83
55934;BME280;41839;41.386;2.082;2022-07-19T01:12:26;99897.72;;;27.83;70.37
55934;BME280;41839;41.386;2.082;2022-07-19T01:14:56;99909.72;;;27.96;70.11
55934;BME280;41839;41.386;2.082;2022-07-19T01:18:52;99909.47;;;28.07;69.53
55934;BME280;41839;41.386;2.082;2022-07-19T01:21:22;99911.25;;;28.05;69.68
55934;BME280;41839;41.386;2.082;2022-07-19T01:24:05;99905.13;;;28.04;69.95
55934;BME280;41839;41.386;2.082;2022-07-19T01:26:30;99904.31;;;28.01;69.78
55934;BME280;41839;41.386;2.082;2022-07-19T01:28:56;99911.41;;;28.00;69.01
55934;BME280;41839;41.386;2.082;2022-07-19T01:31:21;99883.56;;;27.86;69.71
55934;BME280;41839;41.386;2.082;2022-07-19T01:33:47;99901.94;;;27.90;69.97
55934;BME280;41839;41.386;2.082;2022-07-19T01:36:12;99897.91;;;27.74;70.64
55934;BME280;41839;41.386;2.082;2022-07-19T01:38:51;99900.63;;;27.71;70.56
55934;BME280;41839;41.386;2.082;2022-07-19T01:41:16;99900.47;;;27.77;70.49
55934;BME280;41839;41.386;2.082;2022-07-19T01:43:42;99902.97;;;27.85;70.36
55934;BME280;41839;41.386;2.082;2022-07-19T01:46:09;99908.84;;;27.96;70.31
55934;BME280;41839;41.386;2.082;2022-07-19T01:48:35;99893.78;;;27.99;69.87
55934;BME280;41839;41.386;2.082;2022-07-19T01:51:00;99896.56;;;27.93;70.00
55934;BME280;41839;41.386;2.082;2022-07-19T01:53:26;99885.25;;;27.88;69.96
55934;BME280;41839;41.386;2.082;2022-07-19T01:55:51;99889.47;;;27.95;69.81
55934;BME280;41839;41.386;2.082;2022-07-19T01:58:17;99908.53;;;28.08;68.91
55934;BME280;41839;41.386;2.082;2022-07-19T02:02:58;99904.09;;;28.10;69.10
55934;BME280;41839;41.386;2.082;2022-07-19T02:05:39;99899.72;;;28.09;69.19
55934;BME280;41839;41.386;2.082;2022-07-19T02:08:05;99898.19;;;28.00;69.56
55934;BME280;41839;41.386;2.082;2022-07-19T02:10:31;99900.03;;;27.97;69.50
55934;BME280;41839;41.386;2.082;2022-07-19T02:13:27;99879.22;;;27.83;69.16
55934;BME280;41839;41.386;2.082;2022-07-19T02:15:53;99892.19;;;27.92;69.44
55934;BME280;41839;41.386;2.082;2022-07-19T02:18:18;99890.50;;;27.90;68.92
55934;BME280;41839;41.386;2.082;2022-07-19T02:20:44;99887.84;;;27.91;69.06
55934;BME280;41839;41.386;2.082;2022-07-19T02:23:09;99882.72;;;27.84;69.35
55934;BME280;41839;41.386;2.082;2022-07-19T02:25:45;99874.19;;;27.72;69.29
55934;BME280;41839;41.386;2.082;2022-07-19T02:30:10;99888.19;;;27.74;69.64
55934;BME280;41839;41.386;2.082;2022-07-19T02:32:37;99873.47;;;27.66;69.71
55934;BME280;41839;41.386;2.082;2022-07-19T02:35:04;99886.69;;;27.66;69.26
55934;BME280;41839;41.386;2.082;2022-07-19T02:37:29;99887.56;;;27.65;69.08
55934;BME280;41839;41.386;2.082;2022-07-19T02:39:55;99885.78;;;27.65;69.32
55934;BME280;41839;41.386;2.082;2022-07-19T02:42:20;99879.53;;;27.69;69.58
55934;BME280;41839;41.386;2.082;2022-07-19T02:45:03;99876.81;;;27.72;70.09
55934;BME280;41839;41.386;2.082;2022-07-19T02:48:17;99882.19;;;27.68;70.23
55934;BME280;41839;41.386;2.082;2022-07-19T02:50:42;99880.47;;;27.67;69.73
55934;BME280;41839;41.386;2.082;2022-07-19T02:53:08;99878.75;;;27.66;68.79
55934;BME280;41839;41.386;2.082;2022-07-19T02:55:33;99850.94;;;27.49;69.05
55934;BME280;41839;41.386;2.082;2022-07-19T02:57:59;99857.06;;;27.50;68.88
55934;BME280;41839;41.386;2.082;2022-07-19T03:00:24;99859.72;;;27.50;68.52
55934;BME280;41839;41.386;2.082;2022-07-19T03:02:50;99868.41;;;27.55;69.25
55934;BME280;41839;41.386;2.082;2022-07-19T03:05:16;99876.25;;;27.59;69.06
55934;BME280;41839;41.386;2.082;2022-07-19T03:08:40;99863.91;;;27.60;68.67
55934;BME280;41839;41.386;2.082;2022-07-19T03:11:06;99876.88;;;27.69;69.13
55934;BME280;41839;41.386;2.082;2022-07-19T03:13:31;99874.41;;;27.63;69.44
55934;BME280;41839;41.386;2.082;2022-07-19T03:15:57;99868.31;;;27.59;68.98
55934;BME280;41839;41.386;2.082;2022-07-19T03:18:22;99862.28;;;27.53;69.60
55934;BME280;41839;41.386;2.082;2022-07-19T03:20:48;99868.34;;;27.58;69.75
55934;BME280;41839;41.386;2.082;2022-07-19T03:23:13;99852.84;;;27.43;69.81
55934;BME280;41839;41.386;2.082;2022-07-19T03:25:39;99876.53;;;27.47;69.49
55934;BME280;41839;41.386;2.082;2022-07-19T03:28:04;99885.34;;;27.48;69.97
55934;BME280;41839;41.386;2.082;2022-07-19T03:30:30;99880.84;;;27.50;70.27
55934;BME280;41839;41.386;2.082;2022-07-19T03:32:57;99873.91;;;27.47;70.04
55934;BME280;41839;41.386;2.082;2022-07-19T03:35:23;99873.84;;;27.49;70.31
55934;BME280;41839;41.386;2.082;2022-07-19T03:37:48;99869.50;;;27.46;70.80
55934;BME280;41839;41.386;2.082;2022-07-19T03:40:14;99875.63;;;27.48;70.86
55934;BME280;41839;41.386;2.082;2022-07-19T03:42:40;99875.47;;;27.54;70.88
55934;BME280;41839;41.386;2.082;2022-07-19T03:45:06;99873.69;;;27.55;70.72
55934;BME280;41839;41.386;2.082;2022-07-19T03:47:32;99828.66;;;27.24;70.73
55934;BME280;41839;41.386;2.082;2022-07-19T03:49:57;99875.47;;;27.54;70.91
55934;BME280;41839;41.386;2.082;2022-07-19T03:52:23;99878.19;;;27.51;70.41
55934;BME280;41839;41.386;2.082;2022-07-19T03:54:49;99875.84;;;27.39;71.26
55934;BME280;41839;41.386;2.082;2022-07-19T03:57:15;99876.25;;;27.21;72.60
55934;BME280;41839;41.386;2.082;2022-07-19T04:01:48;99872.13;;;27.07;73.31
55934;BME280;41839;41.386;2.082;2022-07-19T04:04:14;99875.84;;;26.99;73.81
55934;BME280;41839;41.386;2.082;2022-07-19T04:06:39;99874.84;;;27.04;73.75
55934;BME280;41839;41.386;2.082;2022-07-19T04:09:04;99875.56;;;27.11;73.62
55934;BME280;41839;41.386;2.082;2022-07-19T04:11:30;99881.91;;;27.04;74.05
55934;BME280;41839;41.386;2.082;2022-07-19T04:13:55;99887.84;;;27.13;73.24
55934;BME280;41839;41.386;2.082;2022-07-19T04:16:21;99876.97;;;27.27;72.49
55934;BME280;41839;41.386;2.082;2022-07-19T04:18:46;99885.75;;;27.29;72.96
55934;BME280;41839;41.386;2.082;2022-07-19T04:21:12;99884.31;;;27.16;73.02
55934;BME280;41839;41.386;2.082;2022-07-19T04:23:37;99882.81;;;27.01;73.35
55934;BME280;41839;41.386;2.082;2022-07-19T04:26:02;99850.69;;;26.82;73.29
55934;BME280;41839;41.386;2.082;2022-07-19T04:28:55;99872.34;;;26.97;72.85
55934;BME280;41839;41.386;2.082;2022-07-19T04:32:12;99890.00;;;26.95;72.81
55934;BME280;41839;41.386;2.082;2022-07-19T04:34:38;99886.72;;;26.83;73.28
55934;BME280;41839;41.386;2.082;2022-07-19T04:37:03;99896.41;;;26.83;73.31
55934;BME280;41839;41.386;2.082;2022-07-19T04:39:29;99888.63;;;26.75;73.91
55934;BME280;41839;41.386;2.082;2022-07-19T04:41:54;99895.53;;;26.82;73.26
55934;BME280;41839;41.386;2.082;2022-07-19T04:44:20;99850.25;;;26.60;73.20
55934;BME280;41839;41.386;2.082;2022-07-19T04:46:45;99893.38;;;27.01;72.46
55934;BME280;41839;41.386;2.082;2022-07-19T04:49:11;99897.63;;;27.08;72.21
55934;BME280;41839;41.386;2.082;2022-07-19T04:51:36;99893.13;;;27.13;72.13
55934;BME280;41839;41.386;2.082;2022-07-19T04:55:15;99892.88;;;27.26;71.83
55934;BME280;41839;41.386;2.082;2022-07-19T04:57:40;99877.97;;;27.23;71.65
55934;BME280;41839;41.386;2.082;2022-07-19T05:00:08;99897.06;;;27.34;71.49
55934;BME280;41839;41.386;2.082;2022-07-19T05:05:10;99893.03;;;27.20;70.92
55934;BME280;41839;41.386;2.082;2022-07-19T05:07:35;99900.09;;;27.18;70.98
55934;BME280;41839;41.386;2.082;2022-07-19T05:10:02;99891.34;;;27.12;70.98
55934;BME280;41839;41.386;2.082;2022-07-19T05:12:28;99903.53;;;27.21;70.72
55934;BME280;41839;41.386;2.082;2022-07-19T05:14:53;99901.88;;;27.17;70.75
55934;BME280;41839;41.386;2.082;2022-07-19T05:17:19;99902.81;;;27.13;70.27
55934;BME280;41839;41.386;2.082;2022-07-19T05:19:44;99907.16;;;27.16;70.40
55934;BME280;41839;41.386;2.082;2022-07-19T05:22:11;99905.38;;;27.18;70.67
55934;BME280;41839;41.386;2.082;2022-07-19T05:24:36;99908.06;;;27.16;71.38
55934;BME280;41839;41.386;2.082;2022-07-19T05:27:02;99913.25;;;27.21;71.57
55934;BME280;41839;41.386;2.082;2022-07-19T05:29:37;99917.34;;;27.34;71.07
55934;BME280;41839;41.386;2.082;2022-07-19T05:32:03;99916.44;;;27.35;70.30
55934;BME280;41839;41.386;2.082;2022-07-19T05:34:28;99910.72;;;27.16;70.37
55934;BME280;41839;41.386;2.082;2022-07-19T05:36:54;99918.56;;;27.19;70.05
55934;BME280;41839;41.386;2.082;2022-07-19T05:39:19;99920.22;;;27.23;71.09
55934;BME280;41839;41.386;2.082;2022-07-19T05:41:45;99931.03;;;27.51;69.99
55934;BME280;41839;41.386;2.082;2022-07-19T05:44:10;99927.06;;;27.71;69.26
55934;BME280;41839;41.386;2.082;2022-07-19T05:48:36;99915.78;;;28.01;66.80
55934;BME280;41839;41.386;2.082;2022-07-19T05:51:02;99930.94;;;27.93;67.01
55934;BME280;41839;41.386;2.082;2022-07-19T05:53:28;99932.41;;;27.68;67.58
55934;BME280;41839;41.386;2.082;2022-07-19T05:55:54;99934.63;;;27.49;68.76
55934;BME280;41839;41.386;2.082;2022-07-19T05:58:19;99927.41;;;27.55;68.36
55934;BME280;41839;41.386;2.082;2022-07-19T06:01:58;99920.44;;;27.90;66.73
55934;BME280;41839;41.386;2.082;2022-07-19T06:04:23;99930.69;;;28.04;66.34
55934;BME280;41839;41.386;2.082;2022-07-19T06:06:49;99918.94;;;28.16;65.66
55934;BME280;41839;41.386;2.082;2022-07-19T06:09:14;99925.63;;;28.29;64.89
55934;BME280;41839;41.386;2.082;2022-07-19T06:13:12;99930.69;;;28.38;64.56
55934;BME280;41839;41.386;2.082;2022-07-19T06:15:37;99911.16;;;28.10;65.63
55934;BME280;41839;41.386;2.082;2022-07-19T06:18:03;99932.09;;;27.83;67.42
55934;BME280;41839;41.386;2.082;2022-07-19T06:20:28;99935.06;;;27.68;67.78
55934;BME280;41839;41.386;2.082;2022-07-19T06:22:54;99922.97;;;27.57;68.70
55934;BME280;41839;41.386;2.082;2022-07-19T06:25:20;99918.75;;;27.50;68.84
55934;BME280;41839;41.386;2.082;2022-07-19T06:27:45;99921.47;;;27.46;69.62
55934;BME280;41839;41.386;2.082;2022-07-19T06:31:44;99917.53;;;27.26;70.46
55934;BME280;41839;41.386;2.082;2022-07-19T06:34:10;99923.81;;;27.21;71.01
55934;BME280;41839;41.386;2.082;2022-07-19T06:36:35;99907.16;;;27.17;70.50
55934;BME280;41839;41.386;2.082;2022-07-19T06:39:01;99921.03;;;27.25;70.20
55934;BME280;41839;41.386;2.082;2022-07-19T06:45:04;99924.59;;;27.26;70.83
55934;BME280;41839;41.386;2.082;2022-07-19T06:47:30;99920.03;;;27.32;70.04
55934;BME280;41839;41.386;2.082;2022-07-19T06:49:55;99895.69;;;27.18;70.25
55934;BME280;41839;41.386;2.082;2022-07-19T06:52:21;99904.13;;;27.34;69.81
55934;BME280;41839;41.386;2.082;2022-07-19T06:54:46;99914.00;;;27.65;68.62
55934;BME280;41839;41.386;2.082;2022-07-19T06:57:12;99902.94;;;27.86;68.07
55934;BME280;41839;41.386;2.082;2022-07-19T06:59:38;99914.78;;;28.05;66.88
55934;BME280;41839;41.386;2.082;2022-07-19T07:02:03;99919.03;;;28.13;65.74
55934;BME280;41839;41.386;2.082;2022-07-19T07:04:30;99916.69;;;28.35;64.42
55934;BME280;41839;41.386;2.082;2022-07-19T07:06:55;99916.78;;;28.30;64.23
55934;BME280;41839;41.386;2.082;2022-07-19T07:09:21;99923.03;;;28.27;64.21
55934;BME280;41839;41.386;2.082;2022-07-19T07:11:46;99918.03;;;28.51;63.98
55934;BME280;41839;41.386;2.082;2022-07-19T07:14:11;99918.97;;;28.80;62.99
55934;BME280;41839;41.386;2.082;2022-07-19T07:16:37;99869.44;;;28.83;61.80
55934;BME280;41839;41.386;2.082;2022-07-19T07:19:02;99902.78;;;29.22;60.87
55934;BME280;41839;41.386;2.082;2022-07-19T07:21:28;99913.44;;;29.48;59.98
55934;BME280;41839;41.386;2.082;2022-07-19T07:23:55;99918.25;;;29.65;58.59
55934;BME280;41839;41.386;2.082;2022-07-19T07:26:20;99912.47;;;29.79;58.62
55934;BME280;41839;41.386;2.082;2022-07-19T07:28:46;99890.47;;;29.77;57.65
55934;BME280;41839;41.386;2.082;2022-07-19T07:31:11;99920.34;;;30.08;56.22
55934;BME280;41839;41.386;2.082;2022-07-19T07:33:37;99922.72;;;30.16;56.73
55934;BME280;41839;41.386;2.082;2022-07-19T07:36:02;99910.19;;;30.23;56.29
55934;BME280;41839;41.386;2.082;2022-07-19T07:38:28;99921.69;;;30.47;55.43
55934;BME280;41839;41.386;2.082;2022-07-19T07:40:53;99918.50;;;30.62;54.72
55934;BME280;41839;41.386;2.082;2022-07-19T07:44:40;99920.63;;;30.77;53.37
55934;BME280;41839;41.386;2.082;2022-07-19T07:47:06;99911.84;;;30.75;54.19
55934;BME280;41839;41.386;2.082;2022-07-19T07:49:36;99927.09;;;30.94;53.69
55934;BME280;41839;41.386;2.082;2022-07-19T07:52:02;99925.88;;;31.02;53.05
55934;BME280;41839;41.386;2.082;2022-07-19T07:54:28;99915.78;;;31.12;53.08
55934;BME280;41839;41.386;2.082;2022-07-19T07:56:53;99919.94;;;31.19;52.69
55934;BME280;41839;41.386;2.082;2022-07-19T07:59:19;99921.38;;;31.28;52.44
55934;BME280;41839;41.386;2.082;2022-07-19T08:01:44;99907.09;;;31.31;51.98
55934;BME280;41839;41.386;2.082;2022-07-19T08:04:10;99909.69;;;31.32;51.15
55934;BME280;41839;41.386;2.082;2022-07-19T08:06:36;99918.81;;;31.49;51.51
55934;BME280;41839;41.386;2.082;2022-07-19T08:09:02;99916.13;;;31.50;51.31
55934;BME280;41839;41.386;2.082;2022-07-19T08:11:28;99912.41;;;31.54;50.52
55934;BME280;41839;41.386;2.082;2022-07-19T08:13:53;99901.06;;;31.49;51.06
55934;BME280;41839;41.386;2.082;2022-07-19T08:16:19;99894.28;;;31.42;51.14
55934;BME280;41839;41.386;2.082;2022-07-19T08:18:44;99915.34;;;31.46;51.01
55934;BME280;41839;41.386;2.082;2022-07-19T08:24:06;99906.25;;;31.52;51.53
55934;BME280;41839;41.386;2.082;2022-07-19T08:26:32;99892.34;;;31.45;52.02
55934;BME280;41839;41.386;2.082;2022-07-19T08:28:57;99904.53;;;31.51;51.46
55934;BME280;41839;41.386;2.082;2022-07-19T08:31:23;99901.88;;;31.51;51.97
55934;BME280;41839;41.386;2.082;2022-07-19T08:33:48;99907.00;;;31.56;51.09
55934;BME280;41839;41.386;2.082;2022-07-19T08:36:14;99912.97;;;31.62;51.47
55934;BME280;41839;41.386;2.082;2022-07-19T08:38:40;99915.13;;;31.75;50.32
55934;BME280;41839;41.386;2.082;2022-07-19T08:41:06;99911.91;;;31.66;51.01
55934;BME280;41839;41.386;2.082;2022-07-19T08:43:32;99910.91;;;31.69;51.10
55934;BME280;41839;41.386;2.082;2022-07-19T08:45:59;99913.75;;;31.64;51.27
55934;BME280;41839;41.386;2.082;2022-07-19T08:48:26;99915.50;;;31.65;50.82
55934;BME280;41839;41.386;2.082;2022-07-19T08:50:53;99914.00;;;31.58;51.45
55934;BME280;41839;41.386;2.082;2022-07-19T08:53:18;99906.22;;;31.54;52.07
55934;BME280;41839;41.386;2.082;2022-07-19T08:57:21;99919.50;;;31.76;51.26
55934;BME280;41839;41.386;2.082;2022-07-19T09:01:36;99917.91;;;31.72;51.27
55934;BME280;41839;41.386;2.082;2022-07-19T09:07:40;99909.41;;;31.62;51.60
55934;BME280;41839;41.386;2.082;2022-07-19T09:10:17;99917.72;;;31.54;52.33
55934;BME280;41839;41.386;2.082;2022-07-19T09:13:08;99923.19;;;31.50;51.80
55934;BME280;41839;41.386;2.082;2022-07-19T09:15:51;99923.28;;;31.48;52.30
55934;BME280;41839;41.386;2.082;2022-07-19T09:18:19;99917.59;;;31.57;51.67
55934;BME280;41839;41.386;2.082;2022-07-19T09:20:46;99929.09;;;31.58;51.76
55934;BME280;41839;41.386;2.082;2022-07-19T09:23:12;99921.25;;;31.55;52.23
55934;BME280;41839;41.386;2.082;2022-07-19T09:25:41;99926.50;;;31.56;51.87
55934;BME280;41839;41.386;2.082;2022-07-19T09:28:07;99920.53;;;31.50;52.04
55934;BME280;41839;41.386;2.082;2022-07-19T09:30:35;99931.06;;;31.53;52.07
55934;BME280;41839;41.386;2.082;2022-07-19T09:33:14;99909.25;;;31.44;51.78
55934;BME280;41839;41.386;2.082;2022-07-19T09:35:41;99930.88;;;31.57;52.06
55934;BME280;41839;41.386;2.082;2022-07-19T09:41:07;99929.69;;;31.42;52.17
55934;BME280;41839;41.386;2.082;2022-07-19T09:43:56;99934.78;;;31.49;52.23
55934;BME280;41839;41.386;2.082;2022-07-19T09:46:38;99935.59;;;31.51;52.12
55934;BME280;41839;41.386;2.082;2022-07-19T09:49:09;99939.97;;;31.52;52.18
55934;BME280;41839;41.386;2.082;2022-07-19T09:51:39;99931.25;;;31.48;51.45
55934;BME280;41839;41.386;2.082;2022-07-19T09:54:06;99932.06;;;31.50;51.46
55934;BME280;41839;41.386;2.082;2022-07-19T09:56:32;99933.66;;;31.54;51.52
55934;BME280;41839;41.386;2.082;2022-07-19T09:58:58;99937.31;;;31.52;51.89
55934;BME280;41839;41.386;2.082;2022-07-19T10:01:25;99940.16;;;31.47;51.65
55934;BME280;41839;41.386;2.082;2022-07-19T10:03:58;99932.97;;;31.49;49.69
55934;BME280;41839;41.386;2.082;2022-07-19T10:06:26;99925.25;;;31.43;48.96
55934;BME280;41839;41.386;2.082;2022-07-19T10:08:53;99938.19;;;31.52;49.72
55934;BME280;41839;41.386;2.082;2022-07-19T10:11:20;99934.50;;;31.56;50.49
55934;BME280;41839;41.386;2.082;2022-07-19T10:13:48;99934.50;;;31.56;50.22
55934;BME280;41839;41.386;2.082;2022-07-19T10:16:18;99927.66;;;31.49;50.11
55934;BME280;41839;41.386;2.082;2022-07-19T10:18:54;99938.41;;;31.46;49.48
55934;BME280;41839;41.386;2.082;2022-07-19T10:21:23;99939.59;;;31.39;49.40
55934;BME280;41839;41.386;2.082;2022-07-19T10:23:52;99933.41;;;31.38;51.32
55934;BME280;41839;41.386;2.082;2022-07-19T10:26:38;99932.59;;;31.36;51.33
55934;BME280;41839;41.386;2.082;2022-07-19T10:32:31;99930.94;;;31.56;51.45
55934;BME280;41839;41.386;2.082;2022-07-19T10:35:23;99939.84;;;31.55;51.34
55934;BME280;41839;41.386;2.082;2022-07-19T10:37:54;99937.66;;;31.66;51.21
55934;BME280;41839;41.386;2.082;2022-07-19T10:43:12;99935.53;;;31.96;50.69
55934;BME280;41839;41.386;2.082;2022-07-19T10:45:40;99933.28;;;32.07;50.61
55934;BME280;41839;41.386;2.082;2022-07-19T10:48:08;99932.19;;;32.13;50.02
55934;BME280;41839;41.386;2.082;2022-07-19T10:50:52;99917.31;;;32.07;50.34
55934;BME280;41839;41.386;2.082;2022-07-19T10:56:21;99931.91;;;32.19;49.88
55934;BME280;41839;41.386;2.082;2022-07-19T11:01:18;99932.78;;;32.40;49.52
55934;BME280;41839;41.386;2.082;2022-07-19T11:05:28;99911.94;;;32.29;49.64
55934;BME280;41839;41.386;2.082;2022-07-19T11:07:56;99923.69;;;32.46;49.23
55934;BME280;41839;41.386;2.082;2022-07-19T11:10:29;99915.22;;;32.56;47.99
55934;BME280;41839;41.386;2.082;2022-07-19T11:13:19;99907.16;;;32.58;48.22
55934;BME280;41839;41.386;2.082;2022-07-19T11:15:54;99917.50;;;32.66;48.42
55934;BME280;41839;41.386;2.082;2022-07-19T11:18:20;99918.94;;;32.73;47.45
55934;BME280;41839;41.386;2.082;2022-07-19T11:20:46;99917.88;;;32.77;48.00
55934;BME280;41839;41.386;2.082;2022-07-19T11:23:17;99909.31;;;32.89;47.42
55934;BME280;41839;41.386;2.082;2022-07-19T11:25:44;99912.84;;;32.90;47.71
55934;BME280;41839;41.386;2.082;2022-07-19T11:28:20;99903.47;;;32.81;47.13
55934;BME280;41839;41.386;2.082;2022-07-19T11:30:45;99909.31;;;32.89;47.96
55934;BME280;41839;41.386;2.082;2022-07-19T11:34:31;99908.72;;;32.82;47.63
55934;BME280;41839;41.386;2.082;2022-07-19T11:37:31;99899.66;;;32.68;47.03
55934;BME280;41839;41.386;2.082;2022-07-19T11:39:57;99901.28;;;32.70;45.68
55934;BME280;41839;41.386;2.082;2022-07-19T11:42:44;99910.03;;;32.74;45.79
55934;BME280;41839;41.386;2.082;2022-07-19T11:45:22;99902.66;;;32.99;43.48
55934;BME280;41839;41.386;2.082;2022-07-19T11:47:55;99887.53;;;33.00;44.58
55934;BME280;41839;41.386;2.082;2022-07-19T11:50:25;99904.72;;;32.93;44.55
55934;BME280;41839;41.386;2.082;2022-07-19T11:52:52;99898.75;;;33.06;44.75
55934;BME280;41839;41.386;2.082;2022-07-19T11:57:52;99887.38;;;33.03;44.16
55934;BME280;41839;41.386;2.082;2022-07-19T12:00:18;99898.56;;;33.11;43.86
55934;BME280;41839;41.386;2.082;2022-07-19T12:03:19;99899.25;;;33.34;42.52
55934;BME280;41839;41.386;2.082;2022-07-19T12:05:57;99888.66;;;33.51;39.96
55934;BME280;41839;41.386;2.082;2022-07-19T12:08:32;99886.00;;;33.51;42.66
55934;BME280;41839;41.386;2.082;2022-07-19T12:10:58;99874.44;;;33.14;42.67
55934;BME280;41839;41.386;2.082;2022-07-19T12:13:34;99878.97;;;33.12;38.75
55934;BME280;41839;41.386;2.082;2022-07-19T12:16:07;99875.56;;;33.27;42.01
55934;BME280;41839;41.386;2.082;2022-07-19T12:18:49;99882.03;;;33.41;39.97
55934;BME280;41839;41.386;2.082;2022-07-19T12:26:39;99881.00;;;33.43;39.79
55934;BME280;41839;41.386;2.082;2022-07-19T12:29:27;99880.66;;;33.51;40.11
55934;BME280;41839;41.386;2.082;2022-07-19T12:31:59;99872.94;;;33.64;36.86
55934;BME280;41839;41.386;2.082;2022-07-19T12:34:25;99858.59;;;33.84;37.83
55934;BME280;41839;41.386;2.082;2022-07-19T12:36:50;99865.41;;;33.89;37.13
55934;BME280;41839;41.386;2.082;2022-07-19T12:42:06;99861.81;;;33.73;37.32
55934;BME280;41839;41.386;2.082;2022-07-19T12:44:33;99871.84;;;33.85;39.08
55934;BME280;41839;41.386;2.082;2022-07-19T12:47:00;99839.34;;;33.77;39.02
55934;BME280;41839;41.386;2.082;2022-07-19T12:49:39;99859.66;;;33.97;38.36
55934;BME280;41839;41.386;2.082;2022-07-19T12:52:04;99851.31;;;34.05;36.10
55934;BME280;41839;41.386;2.082;2022-07-19T12:54:30;99860.13;;;33.88;39.18
55934;BME280;41839;41.386;2.082;2022-07-19T12:58:18;99858.41;;;33.69;39.46
55934;BME280;41839;41.386;2.082;2022-07-19T13:01:04;99837.63;;;33.76;41.39
55934;BME280;41839;41.386;2.082;2022-07-19T13:03:31;99844.59;;;33.96;41.38
55934;BME280;41839;41.386;2.082;2022-07-19T13:05:57;99847.22;;;34.15;41.80
55934;BME280;41839;41.386;2.082;2022-07-19T13:08:25;99837.50;;;34.14;42.18
55934;BME280;41839;41.386;2.082;2022-07-19T13:10:53;99833.53;;;34.21;41.51
55934;BME280;41839;41.386;2.082;2022-07-19T13:13:19;99838.56;;;34.27;42.73
55934;BME280;41839;41.386;2.082;2022-07-19T13:17:01;99814.31;;;34.14;41.84
55934;BME280;41839;41.386;2.082;2022-07-19T13:19:27;99836.19;;;34.38;40.63
55934;BME280;41839;41.386;2.082;2022-07-19T13:21:53;99840.56;;;34.57;40.87
55934;BME280;41839;41.386;2.082;2022-07-19T13:24:19;99840.16;;;34.64;40.72
55934;BME280;41839;41.386;2.082;2022-07-19T13:28:06;99828.38;;;34.51;41.95
55934;BME280;41839;41.386;2.082;2022-07-19T13:30:31;99843.78;;;34.46;42.37
55934;BME280;41839;41.386;2.082;2022-07-19T13:34:36;99839.44;;;34.61;43.05
55934;BME280;41839;41.386;2.082;2022-07-19T13:37:02;99841.28;;;34.43;42.33
55934;BME280;41839;41.386;2.082;2022-07-19T13:39:28;99831.13;;;34.16;41.38
55934;BME280;41839;41.386;2.082;2022-07-19T13:41:54;99831.69;;;33.88;40.99
55934;BME280;41839;41.386;2.082;2022-07-19T13:44:19;99832.34;;;33.57;39.51
55934;BME280;41839;41.386;2.082;2022-07-19T13:46:45;99829.06;;;33.33;43.08
55934;BME280;41839;41.386;2.082;2022-07-19T13:49:10;99832.34;;;33.38;40.95
55934;BME280;41839;41.386;2.082;2022-07-19T13:51:36;99831.34;;;33.41;42.65
55934;BME280;41839;41.386;2.082;2022-07-19T13:54:01;99834.16;;;33.20;41.88
55934;BME280;41839;41.386;2.082;2022-07-19T13:56:27;99833.22;;;33.02;42.24
55934;BME280;41839;41.386;2.082;2022-07-19T13:58:52;99818.94;;;32.66;41.13
55934;BME280;41839;41.386;2.082;2022-07-19T14:01:18;99827.19;;;32.59;42.76
55934;BME280;41839;41.386;2.082;2022-07-19T14:03:45;99828.44;;;32.52;42.85
55934;BME280;41839;41.386;2.082;2022-07-19T14:08:22;99811.16;;;32.41;43.39
55934;BME280;41839;41.386;2.082;2022-07-19T14:10:47;99834.09;;;32.45;42.09
55934;BME280;41839;41.386;2.082;2022-07-19T14:13:13;99828.81;;;32.43;43.28
55934;BME280;41839;41.386;2.082;2022-07-19T14:15:38;99827.75;;;32.27;42.79